createdAt,value
2019-04-06T00:04:53.811Z,99.90
2019-04-06T00:07:23.739Z,99.90
2019-04-06T00:09:53.598Z,99.90
2019-04-06T00:12:23.543Z,99.90
2019-04-06T00:14:53.486Z,99.90
2019-04-06T00:17:23.409Z,99.90
2019-04-06T00:19:53.300Z,99.90
2019-04-06T00:22:23.165Z,99.90
2019-04-06T00:24:53.039Z,99.90
2019-04-06T00:27:24.585Z,99.90
2019-04-06T00:29:54.415Z,99.90
2019-04-06T00:32:31.148Z,99.90
2019-04-06T00:35:01.135Z,99.90
2019-04-06T00:37:31.039Z,99.90
2019-04-06T00:40:00.936Z,99.90
2019-04-06T00:42:30.850Z,99.90
2019-04-06T00:45:00.755Z,99.90
2019-04-06T00:47:30.548Z,99.90
2019-04-06T00:50:00.413Z,99.90
2019-04-06T00:52:30.267Z,99.90
2019-04-06T00:55:00.125Z,99.90
2019-04-06T00:57:29.959Z,99.90
2019-04-06T00:59:59.896Z,99.90
2019-04-06T01:02:29.739Z,99.90
2019-04-06T01:04:59.601Z,99.90
2019-04-06T01:07:29.469Z,99.90
2019-04-06T01:09:59.323Z,99.90
2019-04-06T01:12:29.145Z,99.90
2019-04-06T01:14:59.098Z,99.90
2019-04-06T01:17:29.855Z,99.90
2019-04-06T01:20:00.382Z,99.90
2019-04-06T01:22:30.898Z,99.90
2019-04-06T01:25:01.303Z,99.90
2019-04-06T01:27:31.741Z,99.90
2019-04-06T01:30:02.452Z,99.90
2019-04-06T01:32:33.082Z,99.90
2019-04-06T01:35:03.498Z,99.90
2019-04-06T01:37:34.232Z,99.90
2019-04-06T01:40:04.821Z,99.90
2019-04-06T01:42:35.331Z,99.90
2019-04-06T01:45:06.073Z,99.90
2019-04-06T01:47:36.585Z,99.90
2019-04-06T01:50:07.302Z,99.90
2019-04-06T01:52:37.560Z,99.90
2019-04-06T01:55:08.120Z,99.90
2019-04-06T01:57:38.632Z,99.90
2019-04-06T02:00:11.221Z,99.90
2019-04-06T02:02:44.047Z,99.90
2019-04-06T02:05:14.387Z,99.90
2019-04-06T02:07:44.900Z,99.90
2019-04-06T02:10:15.282Z,99.90
2019-04-06T02:12:45.817Z,99.90
2019-04-06T02:15:18.011Z,99.90
2019-04-06T02:17:48.670Z,99.90
2019-04-06T02:20:19.773Z,99.90
2019-04-06T02:22:51.426Z,99.90
2019-04-06T02:25:22.094Z,99.90
2019-04-06T02:27:53.101Z,99.90
2019-04-06T02:30:31.512Z,99.90
2019-04-06T02:33:07.629Z,99.90
2019-04-06T02:36:02.786Z,99.90
2019-04-06T02:38:43.306Z,99.90
2019-04-06T02:41:31.319Z,99.90
2019-04-06T02:44:01.491Z,99.90
2019-04-06T02:46:32.021Z,99.90
2019-04-06T02:49:02.206Z,99.90
2019-04-06T02:51:34.033Z,99.90
2019-04-06T02:54:04.327Z,99.90
2019-04-06T02:56:45.522Z,99.90
2019-04-06T02:59:06.674Z,99.90
2019-04-06T03:01:37.748Z,99.90
2019-04-06T03:04:07.886Z,99.90
2019-04-06T03:06:38.325Z,99.90
2019-04-06T03:09:11.353Z,99.90
2019-04-06T03:11:40.840Z,99.90
2019-04-06T03:14:10.880Z,99.90
2019-04-06T03:16:40.853Z,99.90
2019-04-06T03:19:10.729Z,99.90
2019-04-06T03:21:40.671Z,99.90
2019-04-06T03:24:10.747Z,99.90
2019-04-06T03:26:40.553Z,99.90
2019-04-06T03:29:10.510Z,99.90
2019-04-06T03:31:40.647Z,99.90
2019-04-06T03:34:10.747Z,99.90
2019-04-06T03:36:40.781Z,99.90
2019-04-06T03:39:11.308Z,99.90
2019-04-06T03:41:41.207Z,99.90
2019-04-06T03:44:34.125Z,99.90
2019-04-06T03:47:40.542Z,99.90
2019-04-06T03:53:24.057Z,99.90
2019-04-06T03:55:53.908Z,99.90
2019-04-06T03:58:24.236Z,99.90
2019-04-06T04:00:54.225Z,99.90
2019-04-06T04:03:24.219Z,99.90
2019-04-06T04:05:54.318Z,99.90
2019-04-06T04:08:24.363Z,99.90
2019-04-06T04:10:54.281Z,99.90
2019-04-06T04:13:24.426Z,99.90
2019-04-06T04:15:56.755Z,99.90
2019-04-06T04:18:26.194Z,99.90
2019-04-06T04:20:56.276Z,99.90
2019-04-06T04:23:26.329Z,99.90
2019-04-06T04:25:56.570Z,99.90
2019-04-06T04:28:26.672Z,99.90
2019-04-06T04:30:56.523Z,99.90
2019-04-06T04:33:26.497Z,99.90
2019-04-06T04:35:56.361Z,99.90
2019-04-06T04:38:26.290Z,99.90
2019-04-06T04:40:56.329Z,99.90
2019-04-06T04:43:26.566Z,99.90
2019-04-06T04:45:56.492Z,99.90
2019-04-06T04:48:36.782Z,99.90
2019-04-06T04:51:06.734Z,99.90
2019-04-06T04:53:45.308Z,99.90
2019-04-06T04:56:15.129Z,99.90
2019-04-06T04:58:45.049Z,99.90
2019-04-06T05:01:14.914Z,99.90
2019-04-06T05:03:44.877Z,99.90
2019-04-06T05:06:14.808Z,99.90
2019-04-06T05:08:44.658Z,99.90
2019-04-06T05:11:14.555Z,99.90
2019-04-06T05:13:46.378Z,99.90
2019-04-06T05:16:16.426Z,99.90
2019-04-06T05:18:46.750Z,99.90
2019-04-06T05:21:17.713Z,99.90
2019-04-06T05:23:47.753Z,99.90
2019-04-06T05:27:08.794Z,99.90
2019-04-06T05:29:41.175Z,99.90
2019-04-06T05:32:11.314Z,99.90
2019-04-06T05:34:41.438Z,99.90
2019-04-06T05:37:11.345Z,99.90
2019-04-06T05:39:41.275Z,99.90
2019-04-06T05:42:11.786Z,99.90
2019-04-06T05:44:41.781Z,99.90
2019-04-06T05:47:11.722Z,99.90
2019-04-06T05:49:41.938Z,99.90
2019-04-06T05:52:12.114Z,99.90
2019-04-06T05:54:42.424Z,99.90
2019-04-06T05:57:12.523Z,99.90
2019-04-06T05:59:42.684Z,99.90
2019-04-06T06:02:12.641Z,99.90
2019-04-06T06:04:43.063Z,99.90
2019-04-06T06:07:13.162Z,99.90
2019-04-06T06:09:43.163Z,99.90
2019-04-06T06:12:14.278Z,99.90
2019-04-06T06:14:44.421Z,99.90
2019-04-06T06:17:14.534Z,99.90
2019-04-06T06:19:44.722Z,99.90
2019-04-06T06:22:14.753Z,99.90
2019-04-06T06:24:44.703Z,99.90
2019-04-06T06:27:15.506Z,99.90
2019-04-06T06:29:45.553Z,99.90
2019-04-06T06:32:15.845Z,99.90
2019-04-06T06:34:46.122Z,99.90
2019-04-06T06:37:16.161Z,99.90
2019-04-06T06:39:46.358Z,99.90
2019-04-06T06:42:16.437Z,99.90
2019-04-06T06:44:46.411Z,99.90
2019-04-06T06:47:16.637Z,99.90
2019-04-06T06:49:46.830Z,99.90
2019-04-06T06:52:16.939Z,99.90
2019-04-06T06:54:46.877Z,99.90
2019-04-06T06:57:16.912Z,99.90
2019-04-06T06:59:46.925Z,99.90
2019-04-06T07:02:17.162Z,99.90
2019-04-06T07:04:47.090Z,99.90
2019-04-06T07:07:17.393Z,99.90
2019-04-06T07:09:47.433Z,99.90
2019-04-06T07:12:18.548Z,99.90
2019-04-06T07:14:49.362Z,99.90
2019-04-06T07:17:19.471Z,99.90
2019-04-06T07:19:49.416Z,99.90
2019-04-06T07:22:19.387Z,99.90
2019-04-06T07:24:49.333Z,99.90
2019-04-06T07:27:19.428Z,99.90
2019-04-06T07:29:49.436Z,99.90
2019-04-06T07:32:19.510Z,99.90
2019-04-06T07:34:49.512Z,99.90
2019-04-06T07:37:19.836Z,99.80
2019-04-06T07:39:50.744Z,94.80
2019-04-06T07:42:20.821Z,87.30
2019-04-06T07:44:50.992Z,74.50
2019-04-06T07:47:20.940Z,75.60
2019-04-06T07:49:51.105Z,68.70
2019-04-06T07:52:21.071Z,70.00
2019-04-06T07:54:51.027Z,67.30
2019-04-06T07:57:21.125Z,70.20
2019-04-06T07:59:51.127Z,70.70
2019-04-06T08:02:21.208Z,64.50
2019-04-06T08:04:51.340Z,65.60
2019-04-06T08:07:21.403Z,61.00
2019-04-06T08:09:51.369Z,59.10
2019-04-06T08:12:26.022Z,57.40
2019-04-06T08:14:57.550Z,58.90
2019-04-06T08:17:27.971Z,57.40
2019-04-06T08:19:58.818Z,53.90
2019-04-06T08:22:29.113Z,54.00
2019-04-06T08:25:00.034Z,53.40
2019-04-06T08:27:30.206Z,54.20
2019-04-06T08:30:00.240Z,54.60
2019-04-06T08:32:30.267Z,53.40
2019-04-06T08:35:01.882Z,53.30
2019-04-06T08:37:32.915Z,51.90
2019-04-06T08:40:02.836Z,50.50
2019-04-06T08:42:32.954Z,51.30
2019-04-06T08:45:03.219Z,51.50
2019-04-06T08:47:33.281Z,49.80
2019-04-06T08:50:03.526Z,49.30
2019-04-06T08:52:33.888Z,49.60
2019-04-06T09:39:21.811Z,50.60
2019-04-06T09:41:51.966Z,51.00
2019-04-06T09:44:43.233Z,49.40
2019-04-06T09:47:44.005Z,50.80
2019-04-06T09:50:36.715Z,51.50
2019-04-06T09:53:20.932Z,53.20
2019-04-06T09:56:10.041Z,53.70
2019-04-06T09:59:05.062Z,53.80
2019-04-06T10:01:42.612Z,54.60
2019-04-06T10:04:43.023Z,54.80
2019-04-06T10:07:30.505Z,52.50
2019-04-06T10:10:28.421Z,53.20
2019-04-06T10:13:15.422Z,55.00
2019-04-06T10:15:56.524Z,54.90
2019-04-06T10:18:32.933Z,55.00
2019-04-06T10:21:27.722Z,53.50
2019-04-06T10:24:22.606Z,52.40
2019-04-06T10:27:10.109Z,51.30
2019-04-06T10:30:01.668Z,52.10
2019-04-06T10:32:50.838Z,53.10
2019-04-06T10:35:38.707Z,52.00
2019-04-06T10:38:19.455Z,52.70
2019-04-06T10:41:07.853Z,52.70
2019-04-06T10:43:59.622Z,53.00
2019-04-06T10:46:46.949Z,53.00
2019-04-06T10:49:26.681Z,53.10
2019-04-06T10:52:30.781Z,53.80
2019-04-06T10:55:19.532Z,53.50
2019-04-06T10:58:07.188Z,54.00
2019-04-06T11:01:05.175Z,52.90
2019-04-06T11:03:44.540Z,53.50
2019-04-06T11:06:39.550Z,53.70
2019-04-06T11:09:34.836Z,53.50
2019-04-06T11:12:35.969Z,53.50
2019-04-06T11:15:28.631Z,52.50
2019-04-06T11:18:17.351Z,52.50
2019-04-06T11:21:21.370Z,52.40
2019-04-06T11:24:13.142Z,53.80
2019-04-06T11:27:04.813Z,53.90
2019-04-06T11:29:56.893Z,50.40
2019-04-06T11:32:44.242Z,51.60
2019-04-06T11:35:38.973Z,51.50
2019-04-06T11:38:23.453Z,51.70
2019-04-06T11:41:23.955Z,51.20
2019-04-06T11:44:15.534Z,52.30
2019-04-06T11:47:02.438Z,50.40
2019-04-06T11:49:51.307Z,51.70
2019-04-06T11:52:36.647Z,51.20
2019-04-06T11:55:28.341Z,51.10
2019-04-06T11:58:13.438Z,50.90
2019-04-06T12:00:52.632Z,50.10
2019-04-06T12:03:28.483Z,49.80
2019-04-06T12:06:26.040Z,50.50
2019-04-06T12:09:18.171Z,49.20
2019-04-06T12:12:13.041Z,49.20
2019-04-06T12:15:05.344Z,49.10
2019-04-06T12:17:54.089Z,49.80
2019-04-06T12:20:51.945Z,49.70
2019-04-06T12:23:43.749Z,48.70
2019-04-06T12:26:31.364Z,47.90
2019-04-06T12:29:16.929Z,48.30
2019-04-06T12:32:04.639Z,48.20
2019-04-06T12:35:11.913Z,48.80
2019-04-06T12:37:52.402Z,48.30
2019-04-06T12:40:44.309Z,48.40
2019-04-06T12:43:38.974Z,46.80
2019-04-06T12:46:24.721Z,46.20
2019-04-06T12:49:06.462Z,46.60
2019-04-06T12:51:55.338Z,46.90
2019-04-06T12:54:43.108Z,47.30
2019-04-06T12:57:29.760Z,46.20
2019-04-06T13:00:08.512Z,46.30
2019-04-06T13:02:47.385Z,46.40
2019-04-06T13:05:35.205Z,44.60
2019-04-06T13:08:28.574Z,45.00
2019-04-06T13:11:20.296Z,45.40
2019-04-06T13:14:21.308Z,44.00
2019-04-06T13:17:04.270Z,43.10
2019-04-06T13:19:45.699Z,43.20
2019-04-06T13:22:39.464Z,42.90
2019-04-06T13:25:33.968Z,41.50
2019-04-06T13:28:16.428Z,42.30
2019-04-06T13:31:01.814Z,42.40
2019-04-06T13:33:34.559Z,42.60
2019-04-06T13:36:21.479Z,43.50
2019-04-06T13:39:46.148Z,42.00
2019-04-06T13:42:55.070Z,42.50
2019-04-06T13:45:44.702Z,42.50
2019-04-06T13:48:39.501Z,40.20
2019-04-06T13:51:32.354Z,41.00
2019-04-06T13:54:28.337Z,40.30
2019-04-06T13:57:27.814Z,40.30
2019-04-06T14:00:34.717Z,39.80
2019-04-06T14:03:40.677Z,39.60
2019-04-06T14:06:49.826Z,39.50
2019-04-06T14:09:44.721Z,38.80
2019-04-06T14:12:44.384Z,39.10
2019-04-06T14:16:06.370Z,39.50
2019-04-06T14:19:27.178Z,39.80
2019-04-06T14:22:29.714Z,39.80
2019-04-06T14:25:30.751Z,40.30
2019-04-06T14:28:25.812Z,40.90
2019-04-06T14:31:37.768Z,40.00
2019-04-06T14:34:52.103Z,40.60
2019-04-06T14:37:48.124Z,40.00
2019-04-06T14:40:52.677Z,39.20
2019-04-06T14:43:49.177Z,38.20
2019-04-06T14:46:53.512Z,39.80
2019-04-06T14:49:59.997Z,40.20
2019-04-06T14:53:02.882Z,38.10
2019-04-06T14:56:03.997Z,39.50
2019-04-06T14:59:09.216Z,39.50
2019-04-06T15:02:18.509Z,39.80
2019-04-06T15:05:29.695Z,40.00
2019-04-06T15:08:36.680Z,39.60
2019-04-06T15:11:26.011Z,39.50
2019-04-06T15:14:39.443Z,40.30
2019-04-06T15:17:33.719Z,40.10
2019-04-06T15:20:19.274Z,39.80
2019-04-06T15:23:37.453Z,41.20
2019-04-06T15:26:52.062Z,40.20
2019-04-06T15:30:06.803Z,40.40
2019-04-06T15:33:13.732Z,41.00
2019-04-06T15:36:18.674Z,39.70
2019-04-06T15:39:20.412Z,40.30
2019-04-06T15:42:12.091Z,39.90
2019-04-06T15:45:14.124Z,39.50
2019-04-06T15:48:16.313Z,40.10
2019-04-06T15:51:18.177Z,40.70
2019-04-06T15:54:16.387Z,40.40
2019-04-06T15:57:24.912Z,40.50
2019-04-06T16:00:20.595Z,40.80
2019-04-06T16:03:25.094Z,42.00
2019-04-06T16:06:24.786Z,41.50
2019-04-06T16:09:37.546Z,42.00
2019-04-06T16:12:36.196Z,42.20
2019-04-06T16:15:37.017Z,42.40
2019-04-06T16:18:48.568Z,42.90
2019-04-06T16:21:43.626Z,43.70
2019-04-06T16:24:54.603Z,43.60
2019-04-06T16:27:56.302Z,43.50
2019-04-06T16:30:58.825Z,44.40
2019-04-06T16:33:55.849Z,44.20
2019-04-06T16:36:56.640Z,43.70
2019-04-06T16:39:47.770Z,43.70
2019-04-06T16:42:52.768Z,44.80
2019-04-06T16:45:58.183Z,44.80
2019-04-06T16:48:59.719Z,44.50
2019-04-06T16:52:08.769Z,44.70
2019-04-06T16:55:09.649Z,44.50
2019-04-06T16:58:08.729Z,44.80
2019-04-06T17:01:12.390Z,44.70
2019-04-06T17:04:11.292Z,44.90
2019-04-06T17:07:15.715Z,45.30
2019-04-06T17:10:05.810Z,45.40
2019-04-06T17:13:07.097Z,45.30
2019-04-06T17:16:20.216Z,46.00
2019-04-06T17:19:22.432Z,45.70
2019-04-06T17:22:18.154Z,45.90
2019-04-06T17:25:13.314Z,46.70
2019-04-06T17:28:12.696Z,46.60
2019-04-06T17:31:06.245Z,47.20
2019-04-06T17:34:08.566Z,47.20
2019-04-06T17:37:07.712Z,47.90
2019-04-06T17:40:00.161Z,48.40
2019-04-06T17:42:44.807Z,48.50
2019-04-06T17:45:32.457Z,48.80
2019-04-06T17:48:25.036Z,49.10
2019-04-06T17:51:17.115Z,49.50
2019-04-06T17:54:06.231Z,49.90
2019-04-06T17:56:51.285Z,50.30
2019-04-06T17:59:43.436Z,50.60
2019-04-06T18:02:45.924Z,50.60
2019-04-06T18:05:18.286Z,51.00
2019-04-06T18:08:22.183Z,51.30
2019-04-06T18:11:29.504Z,51.40
2019-04-06T18:13:59.767Z,50.80
2019-04-06T18:16:33.586Z,51.00
2019-04-06T18:19:03.550Z,51.40
2019-04-06T18:21:34.978Z,51.40
2019-04-06T18:24:10.263Z,51.40
2019-04-06T18:26:40.164Z,51.70
2019-04-06T18:29:10.774Z,51.90
2019-04-06T18:32:02.977Z,52.10
2019-04-06T18:34:33.167Z,52.40
2019-04-06T18:37:14.550Z,52.90
2019-04-06T18:39:44.489Z,53.00
2019-04-06T18:42:14.415Z,53.30
2019-04-06T18:44:44.348Z,53.40
2019-04-06T18:47:14.344Z,53.70
2019-04-06T18:49:44.341Z,53.70
2019-04-06T18:52:14.576Z,53.90
2019-04-06T18:54:45.068Z,54.10
2019-04-06T18:57:15.540Z,54.70
2019-04-06T18:59:46.028Z,54.80
2019-04-06T19:02:16.301Z,54.80
2019-04-06T19:05:21.911Z,54.90
2019-04-06T19:07:52.058Z,55.50
2019-04-06T19:10:22.326Z,55.50
2019-04-06T19:12:52.191Z,56.10
2019-04-06T19:15:22.875Z,55.90
2019-04-06T19:17:53.284Z,56.50
2019-04-06T19:20:23.495Z,56.50
2019-04-06T19:22:53.458Z,57.10
2019-04-06T19:25:23.482Z,57.40
2019-04-06T19:27:53.588Z,57.60
2019-04-06T19:30:25.035Z,58.00
2019-04-06T19:32:56.108Z,58.00
2019-04-06T19:35:26.106Z,58.90
2019-04-06T19:37:56.776Z,58.90
2019-04-06T19:40:27.337Z,59.30
2019-04-06T19:43:00.004Z,59.30
2019-04-06T19:45:30.477Z,59.90
2019-04-06T19:48:00.844Z,60.10
2019-04-06T19:50:30.713Z,60.60
2019-04-06T19:53:00.829Z,61.10
2019-04-06T19:55:30.907Z,61.40
2019-04-06T19:58:01.316Z,61.70
2019-04-06T20:00:32.512Z,63.20
2019-04-06T20:03:03.227Z,63.20
2019-04-06T20:05:33.618Z,64.80
2019-04-06T20:08:03.558Z,66.00
2019-04-06T20:10:35.880Z,67.70
2019-04-06T20:13:06.021Z,69.10
2019-04-06T20:15:36.367Z,69.90
2019-04-06T20:18:07.005Z,71.60
2019-04-06T20:20:37.657Z,71.80
2019-04-06T20:23:07.689Z,71.60
2019-04-06T20:25:38.244Z,71.70
2019-04-06T20:28:08.341Z,71.50
2019-04-06T20:30:40.095Z,70.80
2019-04-06T20:33:10.160Z,70.90
2019-04-06T20:35:40.007Z,71.50
2019-04-06T20:38:10.411Z,71.00
2019-04-06T20:40:41.816Z,71.00
2019-04-06T20:43:13.092Z,71.60
2019-04-06T20:45:43.184Z,72.30
2019-04-06T20:48:13.206Z,72.70
2019-04-06T20:50:43.145Z,72.80
2019-04-06T20:53:13.407Z,72.80
2019-04-06T20:55:43.628Z,72.60
2019-04-06T20:58:13.864Z,72.70
2019-04-06T21:00:43.771Z,72.50
2019-04-06T21:03:13.986Z,73.20
2019-04-06T21:05:44.163Z,74.00
2019-04-06T21:08:14.450Z,75.20
2019-04-06T21:10:44.510Z,75.70
2019-04-06T21:13:14.422Z,76.80
2019-04-06T21:15:45.043Z,77.40
2019-04-06T21:18:15.049Z,78.20
2019-04-06T21:20:45.284Z,79.20
2019-04-06T21:23:15.656Z,80.10
2019-04-06T21:25:46.444Z,81.40
2019-04-06T21:28:16.603Z,82.10
2019-04-06T21:30:46.695Z,83.40
2019-04-06T21:33:17.069Z,85.30
2019-04-06T21:35:47.453Z,86.30
2019-04-06T21:38:18.063Z,88.50
2019-04-06T21:40:48.042Z,90.30
2019-04-06T21:43:18.040Z,91.10
2019-04-06T21:45:47.976Z,92.30
2019-04-06T21:48:18.004Z,93.50
2019-04-06T21:50:47.943Z,94.90
2019-04-06T21:53:18.583Z,97.00
2019-04-06T21:56:00.248Z,98.70
2019-04-06T21:58:20.109Z,99.90
2019-04-06T22:00:53.521Z,99.90
2019-04-06T22:03:23.635Z,99.90
2019-04-06T22:05:53.603Z,99.90
2019-04-06T22:08:23.506Z,99.90
2019-04-06T22:10:53.947Z,99.90
2019-04-06T22:13:24.950Z,99.90
2019-04-06T22:15:55.538Z,99.90
2019-04-06T22:18:25.558Z,99.90
2019-04-06T22:20:55.701Z,99.90
2019-04-06T22:23:25.670Z,99.90
2019-04-06T22:25:55.639Z,99.90
2019-04-06T22:28:25.486Z,99.90
2019-04-06T22:30:55.507Z,99.90
2019-04-06T22:33:25.548Z,99.90
2019-04-06T22:35:55.733Z,99.90
2019-04-06T22:38:25.692Z,99.90
2019-04-06T22:40:55.733Z,99.90
2019-04-06T22:43:25.690Z,99.90
2019-04-06T22:45:56.334Z,99.90
2019-04-06T22:48:26.576Z,99.90
2019-04-06T22:50:56.559Z,99.90
2019-04-06T22:53:26.595Z,99.90
2019-04-06T22:55:56.595Z,99.90
2019-04-06T22:58:26.564Z,99.90
2019-04-06T23:01:00.604Z,99.90
2019-04-06T23:03:48.389Z,99.90
2019-04-06T23:06:23.619Z,99.90
2019-04-06T23:08:54.035Z,99.90
2019-04-06T23:11:24.073Z,99.90
2019-04-06T23:13:54.107Z,99.90
2019-04-06T23:16:24.711Z,99.90
2019-04-06T23:18:54.804Z,99.90
2019-04-06T23:21:24.799Z,99.90
2019-04-06T23:23:54.718Z,99.90
2019-04-06T23:26:25.015Z,99.90
2019-04-06T23:28:55.032Z,99.90
2019-04-06T23:31:25.704Z,99.90
2019-04-06T23:33:55.692Z,99.90
2019-04-06T23:36:30.725Z,99.90
2019-04-06T23:39:01.100Z,99.90
2019-04-06T23:41:31.213Z,99.90
2019-04-06T23:44:01.472Z,99.90
2019-04-06T23:46:31.631Z,99.90
2019-04-06T23:49:02.608Z,99.90
2019-04-06T23:51:32.763Z,99.90
2019-04-06T23:54:03.036Z,99.90
2019-04-06T23:56:33.458Z,99.90
2019-04-06T23:59:03.419Z,99.90
